createdAt,value
2022-12-08T00:08:07.232Z,77.70
2022-12-08T00:13:13.914Z,84.70
2022-12-08T00:23:17.045Z,90.30
2022-12-08T00:33:20.244Z,82.00
2022-12-08T00:43:23.353Z,83.90
2022-12-08T00:53:26.541Z,80.20
2022-12-08T00:58:28.761Z,78.80
2022-12-08T01:13:34.304Z,79.90
2022-12-08T01:18:36.770Z,95.40
2022-12-08T01:23:38.382Z,84.90
2022-12-08T01:28:40.917Z,98.60
2022-12-08T01:33:43.656Z,81.90
2022-12-08T01:38:45.262Z,87.50
2022-12-08T01:44:00.842Z,83.80
2022-12-08T01:49:08.371Z,73.60
2022-12-08T01:54:10.987Z,80.50
2022-12-08T01:59:13.102Z,80.10
2022-12-08T02:04:14.809Z,72.30
2022-12-08T02:20:04.545Z,70.40
2022-12-08T02:25:20.485Z,70.10
2022-12-08T02:30:35.818Z,73.20
2022-12-08T02:35:54.527Z,74.70
2022-12-08T02:41:24.752Z,67.40
2022-12-08T02:46:34.589Z,78.20
2022-12-08T02:51:36.204Z,76.20
2022-12-08T03:02:18.038Z,81.40
2022-12-08T03:07:32.018Z,84.50
2022-12-08T03:12:43.580Z,86.10
2022-12-08T03:17:56.754Z,84.10
2022-12-08T03:23:00.672Z,92.00
2022-12-08T03:28:02.891Z,96.80
2022-12-08T03:33:18.006Z,103.40
2022-12-08T03:38:19.875Z,92.30
2022-12-08T03:43:21.476Z,92.30
2022-12-08T03:53:24.622Z,79.40
2022-12-08T04:03:27.751Z,84.70
2022-12-08T04:13:31.217Z,102.30
2022-12-08T04:18:34.520Z,101.10
2022-12-08T04:23:36.128Z,103.20
2022-12-08T04:28:37.755Z,105.20
2022-12-08T04:38:40.880Z,92.60
2022-12-08T04:48:45.989Z,98.30
